sensor_id;sensor_type;location;lat;lon;timestamp;P1;durP1;ratioP1;P2;durP2;ratioP2
24425;SDS011;12611;44.446;26.000;2022-10-15T00:01:46;6.53;;;2.67;;
24425;SDS011;12611;44.446;26.000;2022-10-15T00:04:14;9.33;;;3.20;;
24425;SDS011;12611;44.446;26.000;2022-10-15T00:06:42;9.33;;;2.60;;
24425;SDS011;12611;44.446;26.000;2022-10-15T00:09:11;8.60;;;2.93;;
24425;SDS011;12611;44.446;26.000;2022-10-15T00:11:39;6.50;;;2.80;;
24425;SDS011;12611;44.446;26.000;2022-10-15T00:14:09;10.90;;;2.73;;
24425;SDS011;12611;44.446;26.000;2022-10-15T00:16:37;6.90;;;2.87;;
24425;SDS011;12611;44.446;26.000;2022-10-15T00:19:05;6.47;;;2.53;;
24425;SDS011;12611;44.446;26.000;2022-10-15T00:21:34;5.73;;;2.80;;
24425;SDS011;12611;44.446;26.000;2022-10-15T00:24:02;8.70;;;2.70;;
24425;SDS011;12611;44.446;26.000;2022-10-15T00:26:31;8.53;;;2.63;;
24425;SDS011;12611;44.446;26.000;2022-10-15T00:29:00;8.33;;;3.20;;
24425;SDS011;12611;44.446;26.000;2022-10-15T00:31:31;7.13;;;2.70;;
24425;SDS011;12611;44.446;26.000;2022-10-15T00:33:59;4.43;;;2.63;;
24425;SDS011;12611;44.446;26.000;2022-10-15T00:36:29;6.90;;;2.97;;
24425;SDS011;12611;44.446;26.000;2022-10-15T00:38:59;7.60;;;2.87;;
24425;SDS011;12611;44.446;26.000;2022-10-15T00:41:28;8.03;;;2.40;;
24425;SDS011;12611;44.446;26.000;2022-10-15T00:43:59;5.73;;;2.80;;
24425;SDS011;12611;44.446;26.000;2022-10-15T00:46:30;8.37;;;2.87;;
24425;SDS011;12611;44.446;26.000;2022-10-15T00:49:02;9.43;;;2.67;;
24425;SDS011;12611;44.446;26.000;2022-10-15T00:51:38;6.93;;;2.87;;
24425;SDS011;12611;44.446;26.000;2022-10-15T00:54:09;7.80;;;3.60;;
24425;SDS011;12611;44.446;26.000;2022-10-15T00:56:39;5.63;;;2.70;;
24425;SDS011;12611;44.446;26.000;2022-10-15T00:59:10;6.30;;;2.60;;
24425;SDS011;12611;44.446;26.000;2022-10-15T01:01:42;10.17;;;2.90;;
24425;SDS011;12611;44.446;26.000;2022-10-15T01:04:10;10.60;;;3.10;;
24425;SDS011;12611;44.446;26.000;2022-10-15T01:06:39;7.07;;;2.90;;
24425;SDS011;12611;44.446;26.000;2022-10-15T01:09:07;8.17;;;3.20;;
24425;SDS011;12611;44.446;26.000;2022-10-15T01:11:37;6.30;;;3.30;;
24425;SDS011;12611;44.446;26.000;2022-10-15T01:14:12;7.70;;;2.67;;
24425;SDS011;12611;44.446;26.000;2022-10-15T01:16:52;5.90;;;2.40;;
24425;SDS011;12611;44.446;26.000;2022-10-15T01:19:27;4.50;;;2.47;;
24425;SDS011;12611;44.446;26.000;2022-10-15T01:22:08;7.33;;;2.87;;
24425;SDS011;12611;44.446;26.000;2022-10-15T01:24:43;8.87;;;2.90;;
24425;SDS011;12611;44.446;26.000;2022-10-15T01:27:24;6.40;;;2.03;;
24425;SDS011;12611;44.446;26.000;2022-10-15T01:30:02;8.93;;;3.00;;
24425;SDS011;12611;44.446;26.000;2022-10-15T01:32:46;7.33;;;2.50;;
24425;SDS011;12611;44.446;26.000;2022-10-15T01:35:30;8.00;;;2.97;;
24425;SDS011;12611;44.446;26.000;2022-10-15T01:38:09;6.67;;;2.90;;
24425;SDS011;12611;44.446;26.000;2022-10-15T01:40:46;5.97;;;2.77;;
24425;SDS011;12611;44.446;26.000;2022-10-15T01:43:21;5.03;;;2.90;;
24425;SDS011;12611;44.446;26.000;2022-10-15T01:45:56;6.83;;;3.13;;
24425;SDS011;12611;44.446;26.000;2022-10-15T01:48:29;6.33;;;2.90;;
24425;SDS011;12611;44.446;26.000;2022-10-15T01:50:59;5.47;;;2.63;;
24425;SDS011;12611;44.446;26.000;2022-10-15T01:53:30;6.43;;;2.77;;
24425;SDS011;12611;44.446;26.000;2022-10-15T01:56:03;6.63;;;2.83;;
24425;SDS011;12611;44.446;26.000;2022-10-15T01:58:35;7.53;;;2.50;;
24425;SDS011;12611;44.446;26.000;2022-10-15T02:01:06;4.63;;;2.33;;
24425;SDS011;12611;44.446;26.000;2022-10-15T02:03:42;6.17;;;3.27;;
24425;SDS011;12611;44.446;26.000;2022-10-15T02:06:15;5.50;;;2.90;;
24425;SDS011;12611;44.446;26.000;2022-10-15T02:08:52;7.60;;;3.10;;
24425;SDS011;12611;44.446;26.000;2022-10-15T02:11:29;5.30;;;2.80;;
24425;SDS011;12611;44.446;26.000;2022-10-15T02:14:10;5.90;;;2.97;;
24425;SDS011;12611;44.446;26.000;2022-10-15T02:16:48;7.03;;;3.17;;
24425;SDS011;12611;44.446;26.000;2022-10-15T02:19:25;6.07;;;2.67;;
24425;SDS011;12611;44.446;26.000;2022-10-15T02:22:00;5.13;;;2.67;;
24425;SDS011;12611;44.446;26.000;2022-10-15T02:24:34;9.77;;;2.70;;
24425;SDS011;12611;44.446;26.000;2022-10-15T02:27:07;7.97;;;2.87;;
24425;SDS011;12611;44.446;26.000;2022-10-15T02:29:37;7.00;;;3.00;;
24425;SDS011;12611;44.446;26.000;2022-10-15T02:32:09;5.13;;;2.90;;
24425;SDS011;12611;44.446;26.000;2022-10-15T02:34:38;5.67;;;2.70;;
24425;SDS011;12611;44.446;26.000;2022-10-15T02:37:07;5.73;;;3.17;;
24425;SDS011;12611;44.446;26.000;2022-10-15T02:39:36;5.63;;;3.23;;
24425;SDS011;12611;44.446;26.000;2022-10-15T02:42:04;8.87;;;2.93;;
24425;SDS011;12611;44.446;26.000;2022-10-15T02:44:33;7.10;;;2.83;;
24425;SDS011;12611;44.446;26.000;2022-10-15T02:47:01;10.43;;;3.30;;
24425;SDS011;12611;44.446;26.000;2022-10-15T02:49:34;4.90;;;3.07;;
24425;SDS011;12611;44.446;26.000;2022-10-15T02:52:02;6.77;;;2.87;;
24425;SDS011;12611;44.446;26.000;2022-10-15T02:54:31;5.80;;;2.80;;
24425;SDS011;12611;44.446;26.000;2022-10-15T02:56:59;6.23;;;2.73;;
24425;SDS011;12611;44.446;26.000;2022-10-15T02:59:27;4.60;;;2.80;;
24425;SDS011;12611;44.446;26.000;2022-10-15T03:01:55;7.83;;;3.33;;
24425;SDS011;12611;44.446;26.000;2022-10-15T03:04:24;6.13;;;3.00;;
24425;SDS011;12611;44.446;26.000;2022-10-15T03:06:53;6.87;;;3.00;;
24425;SDS011;12611;44.446;26.000;2022-10-15T03:09:22;5.87;;;2.73;;
24425;SDS011;12611;44.446;26.000;2022-10-15T03:11:50;7.50;;;3.17;;
24425;SDS011;12611;44.446;26.000;2022-10-15T03:14:18;6.50;;;3.43;;
24425;SDS011;12611;44.446;26.000;2022-10-15T03:16:46;6.73;;;3.20;;
24425;SDS011;12611;44.446;26.000;2022-10-15T03:19:15;5.67;;;3.33;;
24425;SDS011;12611;44.446;26.000;2022-10-15T03:21:43;5.90;;;2.93;;
24425;SDS011;12611;44.446;26.000;2022-10-15T03:24:16;5.60;;;2.83;;
24425;SDS011;12611;44.446;26.000;2022-10-15T03:26:44;5.03;;;2.70;;
24425;SDS011;12611;44.446;26.000;2022-10-15T03:29:12;8.03;;;3.43;;
24425;SDS011;12611;44.446;26.000;2022-10-15T03:31:40;4.17;;;2.33;;
24425;SDS011;12611;44.446;26.000;2022-10-15T03:34:09;5.43;;;3.17;;
24425;SDS011;12611;44.446;26.000;2022-10-15T03:36:37;8.27;;;3.20;;
24425;SDS011;12611;44.446;26.000;2022-10-15T03:39:05;5.70;;;3.43;;
24425;SDS011;12611;44.446;26.000;2022-10-15T03:41:35;9.10;;;3.37;;
24425;SDS011;12611;44.446;26.000;2022-10-15T03:44:04;7.17;;;3.43;;
24425;SDS011;12611;44.446;26.000;2022-10-15T03:46:33;9.37;;;3.27;;
24425;SDS011;12611;44.446;26.000;2022-10-15T03:49:01;4.70;;;2.80;;
24425;SDS011;12611;44.446;26.000;2022-10-15T03:51:30;6.07;;;3.27;;
24425;SDS011;12611;44.446;26.000;2022-10-15T03:53:58;7.30;;;3.27;;
24425;SDS011;12611;44.446;26.000;2022-10-15T03:56:26;7.40;;;3.07;;
24425;SDS011;12611;44.446;26.000;2022-10-15T03:58:56;8.03;;;3.27;;
24425;SDS011;12611;44.446;26.000;2022-10-15T04:01:24;5.80;;;3.33;;
24425;SDS011;12611;44.446;26.000;2022-10-15T04:03:53;6.70;;;3.27;;
24425;SDS011;12611;44.446;26.000;2022-10-15T04:06:21;7.77;;;3.20;;
24425;SDS011;12611;44.446;26.000;2022-10-15T04:08:49;6.63;;;3.13;;
24425;SDS011;12611;44.446;26.000;2022-10-15T04:11:22;9.93;;;3.10;;
24425;SDS011;12611;44.446;26.000;2022-10-15T04:13:51;8.80;;;3.37;;
24425;SDS011;12611;44.446;26.000;2022-10-15T04:16:21;7.50;;;3.03;;
24425;SDS011;12611;44.446;26.000;2022-10-15T04:18:49;5.40;;;2.93;;
24425;SDS011;12611;44.446;26.000;2022-10-15T04:21:17;6.97;;;2.93;;
24425;SDS011;12611;44.446;26.000;2022-10-15T04:23:47;5.57;;;2.93;;
24425;SDS011;12611;44.446;26.000;2022-10-15T04:26:15;8.13;;;3.17;;
24425;SDS011;12611;44.446;26.000;2022-10-15T04:28:43;6.40;;;2.57;;
24425;SDS011;12611;44.446;26.000;2022-10-15T04:31:13;9.17;;;3.30;;
24425;SDS011;12611;44.446;26.000;2022-10-15T04:33:43;9.80;;;3.47;;
24425;SDS011;12611;44.446;26.000;2022-10-15T04:36:15;8.53;;;3.33;;
24425;SDS011;12611;44.446;26.000;2022-10-15T04:38:48;11.20;;;3.83;;
24425;SDS011;12611;44.446;26.000;2022-10-15T04:41:16;6.27;;;3.73;;
24425;SDS011;12611;44.446;26.000;2022-10-15T04:43:44;7.77;;;3.47;;
24425;SDS011;12611;44.446;26.000;2022-10-15T04:46:13;6.40;;;3.53;;
24425;SDS011;12611;44.446;26.000;2022-10-15T04:48:41;6.67;;;3.57;;
24425;SDS011;12611;44.446;26.000;2022-10-15T04:51:12;5.43;;;3.60;;
24425;SDS011;12611;44.446;26.000;2022-10-15T04:53:41;8.33;;;4.03;;
24425;SDS011;12611;44.446;26.000;2022-10-15T04:56:10;11.03;;;3.90;;
24425;SDS011;12611;44.446;26.000;2022-10-15T04:58:41;7.93;;;4.17;;
24425;SDS011;12611;44.446;26.000;2022-10-15T05:01:11;8.00;;;3.80;;
24425;SDS011;12611;44.446;26.000;2022-10-15T05:03:41;11.47;;;4.20;;
24425;SDS011;12611;44.446;26.000;2022-10-15T05:06:12;8.03;;;3.83;;
24425;SDS011;12611;44.446;26.000;2022-10-15T05:08:42;12.20;;;4.33;;
24425;SDS011;12611;44.446;26.000;2022-10-15T05:11:12;11.93;;;4.50;;
24425;SDS011;12611;44.446;26.000;2022-10-15T05:13:42;12.47;;;4.53;;
24425;SDS011;12611;44.446;26.000;2022-10-15T05:16:11;10.63;;;3.93;;
24425;SDS011;12611;44.446;26.000;2022-10-15T05:18:41;10.80;;;4.50;;
24425;SDS011;12611;44.446;26.000;2022-10-15T05:21:12;10.50;;;4.00;;
24425;SDS011;12611;44.446;26.000;2022-10-15T05:23:42;11.83;;;4.63;;
24425;SDS011;12611;44.446;26.000;2022-10-15T05:26:11;10.93;;;4.50;;
24425;SDS011;12611;44.446;26.000;2022-10-15T05:28:41;6.10;;;4.13;;
24425;SDS011;12611;44.446;26.000;2022-10-15T05:31:10;11.70;;;4.47;;
24425;SDS011;12611;44.446;26.000;2022-10-15T05:33:44;7.20;;;4.30;;
24425;SDS011;12611;44.446;26.000;2022-10-15T05:36:15;11.10;;;5.07;;
24425;SDS011;12611;44.446;26.000;2022-10-15T05:38:45;11.43;;;5.00;;
24425;SDS011;12611;44.446;26.000;2022-10-15T05:41:14;12.13;;;5.13;;
24425;SDS011;12611;44.446;26.000;2022-10-15T05:43:44;10.57;;;4.70;;
24425;SDS011;12611;44.446;26.000;2022-10-15T05:46:13;9.13;;;4.40;;
24425;SDS011;12611;44.446;26.000;2022-10-15T05:48:41;13.23;;;5.77;;
24425;SDS011;12611;44.446;26.000;2022-10-15T05:51:11;10.63;;;5.30;;
24425;SDS011;12611;44.446;26.000;2022-10-15T05:53:41;11.50;;;5.10;;
24425;SDS011;12611;44.446;26.000;2022-10-15T05:56:11;11.37;;;5.50;;
24425;SDS011;12611;44.446;26.000;2022-10-15T05:58:40;12.97;;;6.33;;
24425;SDS011;12611;44.446;26.000;2022-10-15T06:01:09;13.10;;;6.03;;
24425;SDS011;12611;44.446;26.000;2022-10-15T06:03:38;13.57;;;5.87;;
24425;SDS011;12611;44.446;26.000;2022-10-15T06:06:14;12.67;;;6.00;;
24425;SDS011;12611;44.446;26.000;2022-10-15T06:08:45;9.63;;;5.23;;
24425;SDS011;12611;44.446;26.000;2022-10-15T06:11:14;8.83;;;4.30;;
24425;SDS011;12611;44.446;26.000;2022-10-15T06:13:43;10.67;;;4.43;;
24425;SDS011;12611;44.446;26.000;2022-10-15T06:16:13;15.97;;;7.20;;
24425;SDS011;12611;44.446;26.000;2022-10-15T06:18:49;12.10;;;5.43;;
24425;SDS011;12611;44.446;26.000;2022-10-15T06:21:19;7.53;;;3.87;;
24425;SDS011;12611;44.446;26.000;2022-10-15T06:23:48;10.07;;;3.00;;
24425;SDS011;12611;44.446;26.000;2022-10-15T06:26:17;6.47;;;3.93;;
24425;SDS011;12611;44.446;26.000;2022-10-15T06:28:45;10.07;;;3.20;;
24425;SDS011;12611;44.446;26.000;2022-10-15T06:31:13;5.70;;;2.77;;
24425;SDS011;12611;44.446;26.000;2022-10-15T06:33:42;3.80;;;2.80;;
24425;SDS011;12611;44.446;26.000;2022-10-15T06:36:10;7.27;;;3.53;;
24425;SDS011;12611;44.446;26.000;2022-10-15T06:38:39;4.83;;;2.30;;
24425;SDS011;12611;44.446;26.000;2022-10-15T06:41:12;9.17;;;3.10;;
24425;SDS011;12611;44.446;26.000;2022-10-15T06:43:40;7.47;;;2.60;;
24425;SDS011;12611;44.446;26.000;2022-10-15T06:46:08;5.33;;;2.23;;
24425;SDS011;12611;44.446;26.000;2022-10-15T06:48:37;5.77;;;2.87;;
24425;SDS011;12611;44.446;26.000;2022-10-15T06:51:05;5.50;;;2.50;;
24425;SDS011;12611;44.446;26.000;2022-10-15T06:53:43;9.33;;;3.17;;
24425;SDS011;12611;44.446;26.000;2022-10-15T06:56:13;6.70;;;2.77;;
24425;SDS011;12611;44.446;26.000;2022-10-15T06:58:41;4.93;;;2.60;;
24425;SDS011;12611;44.446;26.000;2022-10-15T07:01:09;7.60;;;2.10;;
24425;SDS011;12611;44.446;26.000;2022-10-15T07:03:38;4.37;;;2.30;;
24425;SDS011;12611;44.446;26.000;2022-10-15T07:06:07;10.77;;;2.97;;
24425;SDS011;12611;44.446;26.000;2022-10-15T07:08:36;9.47;;;3.30;;
24425;SDS011;12611;44.446;26.000;2022-10-15T07:11:04;6.13;;;3.13;;
24425;SDS011;12611;44.446;26.000;2022-10-15T07:13:35;5.43;;;2.77;;
24425;SDS011;12611;44.446;26.000;2022-10-15T07:16:04;7.13;;;2.47;;
24425;SDS011;12611;44.446;26.000;2022-10-15T07:18:34;8.77;;;2.50;;
24425;SDS011;12611;44.446;26.000;2022-10-15T07:21:03;5.90;;;2.47;;
24425;SDS011;12611;44.446;26.000;2022-10-15T07:23:33;7.57;;;2.30;;
24425;SDS011;12611;44.446;26.000;2022-10-15T07:26:01;5.17;;;1.80;;
24425;SDS011;12611;44.446;26.000;2022-10-15T07:28:30;4.13;;;2.07;;
24425;SDS011;12611;44.446;26.000;2022-10-15T07:31:00;4.57;;;2.50;;
24425;SDS011;12611;44.446;26.000;2022-10-15T07:33:29;4.77;;;1.67;;
24425;SDS011;12611;44.446;26.000;2022-10-15T07:36:01;5.10;;;1.73;;
24425;SDS011;12611;44.446;26.000;2022-10-15T07:38:30;5.63;;;1.50;;
24425;SDS011;12611;44.446;26.000;2022-10-15T07:40:58;6.87;;;2.20;;
24425;SDS011;12611;44.446;26.000;2022-10-15T07:43:27;3.83;;;1.70;;
24425;SDS011;12611;44.446;26.000;2022-10-15T07:45:56;5.57;;;1.63;;
24425;SDS011;12611;44.446;26.000;2022-10-15T07:48:25;5.60;;;1.90;;
24425;SDS011;12611;44.446;26.000;2022-10-15T07:50:54;5.77;;;2.10;;
24425;SDS011;12611;44.446;26.000;2022-10-15T07:53:22;5.80;;;2.03;;
24425;SDS011;12611;44.446;26.000;2022-10-15T07:55:51;5.83;;;2.30;;
24425;SDS011;12611;44.446;26.000;2022-10-15T07:58:19;6.87;;;2.40;;
24425;SDS011;12611;44.446;26.000;2022-10-15T08:00:48;7.10;;;2.13;;
24425;SDS011;12611;44.446;26.000;2022-10-15T08:03:16;8.87;;;2.60;;
24425;SDS011;12611;44.446;26.000;2022-10-15T08:05:45;5.77;;;2.30;;
24425;SDS011;12611;44.446;26.000;2022-10-15T08:08:18;4.20;;;1.83;;
24425;SDS011;12611;44.446;26.000;2022-10-15T08:10:46;4.93;;;2.40;;
24425;SDS011;12611;44.446;26.000;2022-10-15T08:13:15;3.23;;;1.63;;
24425;SDS011;12611;44.446;26.000;2022-10-15T08:15:43;3.83;;;2.20;;
24425;SDS011;12611;44.446;26.000;2022-10-15T08:18:12;3.10;;;2.03;;
24425;SDS011;12611;44.446;26.000;2022-10-15T08:20:40;3.83;;;1.83;;
24425;SDS011;12611;44.446;26.000;2022-10-15T08:23:13;3.53;;;2.10;;
24425;SDS011;12611;44.446;26.000;2022-10-15T08:25:43;3.93;;;1.63;;
24425;SDS011;12611;44.446;26.000;2022-10-15T08:28:11;13.17;;;2.40;;
24425;SDS011;12611;44.446;26.000;2022-10-15T08:30:39;5.63;;;2.20;;
24425;SDS011;12611;44.446;26.000;2022-10-15T08:33:08;10.37;;;2.07;;
24425;SDS011;12611;44.446;26.000;2022-10-15T08:35:36;8.33;;;2.20;;
24425;SDS011;12611;44.446;26.000;2022-10-15T08:38:14;8.13;;;2.10;;
24425;SDS011;12611;44.446;26.000;2022-10-15T08:40:47;8.63;;;2.43;;
24425;SDS011;12611;44.446;26.000;2022-10-15T08:43:21;5.90;;;2.07;;
24425;SDS011;12611;44.446;26.000;2022-10-15T08:45:53;6.90;;;1.93;;
24425;SDS011;12611;44.446;26.000;2022-10-15T08:48:27;6.47;;;2.30;;
24425;SDS011;12611;44.446;26.000;2022-10-15T08:50:58;8.80;;;1.80;;
24425;SDS011;12611;44.446;26.000;2022-10-15T08:53:33;12.13;;;2.67;;
24425;SDS011;12611;44.446;26.000;2022-10-15T08:56:10;5.33;;;2.07;;
24425;SDS011;12611;44.446;26.000;2022-10-15T08:58:44;3.93;;;1.70;;
24425;SDS011;12611;44.446;26.000;2022-10-15T09:01:20;6.90;;;2.07;;
24425;SDS011;12611;44.446;26.000;2022-10-15T09:03:57;7.37;;;1.90;;
24425;SDS011;12611;44.446;26.000;2022-10-15T09:06:33;3.67;;;2.17;;
24425;SDS011;12611;44.446;26.000;2022-10-15T09:09:07;5.47;;;2.03;;
24425;SDS011;12611;44.446;26.000;2022-10-15T09:11:47;5.47;;;2.30;;
24425;SDS011;12611;44.446;26.000;2022-10-15T09:14:25;4.73;;;2.10;;
24425;SDS011;12611;44.446;26.000;2022-10-15T09:16:57;3.10;;;1.43;;
24425;SDS011;12611;44.446;26.000;2022-10-15T09:19:29;5.77;;;2.03;;
24425;SDS011;12611;44.446;26.000;2022-10-15T09:22:01;5.23;;;2.23;;
24425;SDS011;12611;44.446;26.000;2022-10-15T09:24:31;6.60;;;2.50;;
24425;SDS011;12611;44.446;26.000;2022-10-15T09:27:02;8.23;;;2.30;;
24425;SDS011;12611;44.446;26.000;2022-10-15T09:29:36;6.50;;;2.47;;
24425;SDS011;12611;44.446;26.000;2022-10-15T09:32:12;7.43;;;2.90;;
24425;SDS011;12611;44.446;26.000;2022-10-15T09:34:47;6.70;;;3.43;;
24425;SDS011;12611;44.446;26.000;2022-10-15T09:37:23;8.10;;;3.20;;
24425;SDS011;12611;44.446;26.000;2022-10-15T09:40:01;5.10;;;2.43;;
24425;SDS011;12611;44.446;26.000;2022-10-15T09:42:40;9.37;;;3.00;;
24425;SDS011;12611;44.446;26.000;2022-10-15T09:45:12;8.17;;;2.87;;
24425;SDS011;12611;44.446;26.000;2022-10-15T09:47:42;6.77;;;2.77;;
24425;SDS011;12611;44.446;26.000;2022-10-15T09:50:11;5.50;;;2.77;;
24425;SDS011;12611;44.446;26.000;2022-10-15T09:52:45;7.63;;;2.83;;
24425;SDS011;12611;44.446;26.000;2022-10-15T09:55:34;12.07;;;2.70;;
24425;SDS011;12611;44.446;26.000;2022-10-15T09:58:09;5.60;;;2.97;;
24425;SDS011;12611;44.446;26.000;2022-10-15T10:00:51;8.27;;;2.47;;
24425;SDS011;12611;44.446;26.000;2022-10-15T10:03:25;5.57;;;2.70;;
24425;SDS011;12611;44.446;26.000;2022-10-15T10:05:59;6.93;;;2.77;;
24425;SDS011;12611;44.446;26.000;2022-10-15T10:08:31;5.77;;;2.93;;
24425;SDS011;12611;44.446;26.000;2022-10-15T10:11:06;5.90;;;3.00;;
24425;SDS011;12611;44.446;26.000;2022-10-15T10:13:37;7.37;;;3.00;;
24425;SDS011;12611;44.446;26.000;2022-10-15T10:16:09;6.93;;;3.20;;
24425;SDS011;12611;44.446;26.000;2022-10-15T10:18:39;8.50;;;3.13;;
24425;SDS011;12611;44.446;26.000;2022-10-15T10:21:22;5.83;;;2.80;;
24425;SDS011;12611;44.446;26.000;2022-10-15T10:23:53;6.33;;;3.03;;
24425;SDS011;12611;44.446;26.000;2022-10-15T10:26:22;7.53;;;3.30;;
24425;SDS011;12611;44.446;26.000;2022-10-15T10:28:51;5.77;;;3.50;;
24425;SDS011;12611;44.446;26.000;2022-10-15T10:31:30;6.83;;;3.43;;
24425;SDS011;12611;44.446;26.000;2022-10-15T10:34:09;5.97;;;3.07;;
24425;SDS011;12611;44.446;26.000;2022-10-15T10:36:42;8.07;;;2.67;;
24425;SDS011;12611;44.446;26.000;2022-10-15T10:39:19;5.03;;;2.60;;
24425;SDS011;12611;44.446;26.000;2022-10-15T10:41:55;6.37;;;3.37;;
24425;SDS011;12611;44.446;26.000;2022-10-15T10:44:26;5.47;;;2.60;;
24425;SDS011;12611;44.446;26.000;2022-10-15T10:47:07;7.17;;;3.00;;
24425;SDS011;12611;44.446;26.000;2022-10-15T10:49:38;10.00;;;2.97;;
24425;SDS011;12611;44.446;26.000;2022-10-15T10:52:17;5.17;;;2.93;;
24425;SDS011;12611;44.446;26.000;2022-10-15T10:54:47;7.07;;;2.70;;
24425;SDS011;12611;44.446;26.000;2022-10-15T10:57:28;6.53;;;2.57;;
24425;SDS011;12611;44.446;26.000;2022-10-15T11:00:07;5.43;;;2.83;;
24425;SDS011;12611;44.446;26.000;2022-10-15T11:02:38;10.20;;;3.17;;
24425;SDS011;12611;44.446;26.000;2022-10-15T11:05:09;8.07;;;3.70;;
24425;SDS011;12611;44.446;26.000;2022-10-15T11:07:40;5.87;;;3.17;;
24425;SDS011;12611;44.446;26.000;2022-10-15T11:10:17;6.90;;;2.90;;
24425;SDS011;12611;44.446;26.000;2022-10-15T11:12:54;7.80;;;3.33;;
24425;SDS011;12611;44.446;26.000;2022-10-15T11:15:38;11.97;;;2.97;;
24425;SDS011;12611;44.446;26.000;2022-10-15T11:18:20;5.50;;;2.80;;
24425;SDS011;12611;44.446;26.000;2022-10-15T11:21:00;4.90;;;3.10;;
24425;SDS011;12611;44.446;26.000;2022-10-15T11:23:41;8.57;;;2.70;;
24425;SDS011;12611;44.446;26.000;2022-10-15T11:26:22;14.13;;;3.33;;
24425;SDS011;12611;44.446;26.000;2022-10-15T11:29:19;8.02;;;3.08;;
24425;SDS011;12611;44.446;26.000;2022-10-15T11:31:56;9.50;;;3.25;;
24425;SDS011;12611;44.446;26.000;2022-10-15T11:34:46;7.50;;;3.05;;
24425;SDS011;12611;44.446;26.000;2022-10-15T11:37:30;5.82;;;3.08;;
24425;SDS011;12611;44.446;26.000;2022-10-15T11:40:15;10.52;;;4.68;;
24425;SDS011;12611;44.446;26.000;2022-10-15T11:42:50;7.10;;;3.50;;
24425;SDS011;12611;44.446;26.000;2022-10-15T11:45:28;9.80;;;3.25;;
24425;SDS011;12611;44.446;26.000;2022-10-15T11:48:10;8.02;;;3.65;;
24425;SDS011;12611;44.446;26.000;2022-10-15T11:50:43;8.90;;;3.63;;
24425;SDS011;12611;44.446;26.000;2022-10-15T11:53:26;7.95;;;2.85;;
24425;SDS011;12611;44.446;26.000;2022-10-15T11:56:04;7.28;;;3.58;;
24425;SDS011;12611;44.446;26.000;2022-10-15T11:58:37;12.68;;;3.60;;
24425;SDS011;12611;44.446;26.000;2022-10-15T12:01:11;6.63;;;2.60;;
24425;SDS011;12611;44.446;26.000;2022-10-15T12:03:49;6.55;;;3.42;;
24425;SDS011;12611;44.446;26.000;2022-10-15T12:06:20;7.07;;;3.33;;
24425;SDS011;12611;44.446;26.000;2022-10-15T12:08:51;6.53;;;3.30;;
24425;SDS011;12611;44.446;26.000;2022-10-15T12:11:30;8.38;;;3.50;;
24425;SDS011;12611;44.446;26.000;2022-10-15T12:14:12;9.38;;;3.42;;
24425;SDS011;12611;44.446;26.000;2022-10-15T12:16:48;8.98;;;3.00;;
24425;SDS011;12611;44.446;26.000;2022-10-15T12:19:25;4.90;;;2.50;;
24425;SDS011;12611;44.446;26.000;2022-10-15T12:22:02;8.38;;;2.95;;
24425;SDS011;12611;44.446;26.000;2022-10-15T12:24:49;5.43;;;2.80;;
24425;SDS011;12611;44.446;26.000;2022-10-15T12:27:20;5.55;;;2.65;;
24425;SDS011;12611;44.446;26.000;2022-10-15T12:32:42;7.28;;;3.13;;
24425;SDS011;12611;44.446;26.000;2022-10-15T12:35:19;8.63;;;2.63;;
24425;SDS011;12611;44.446;26.000;2022-10-15T12:37:49;5.20;;;2.15;;
24425;SDS011;12611;44.446;26.000;2022-10-15T12:40:28;11.07;;;2.90;;
24425;SDS011;12611;44.446;26.000;2022-10-15T12:43:25;6.07;;;2.45;;
24425;SDS011;12611;44.446;26.000;2022-10-15T12:46:00;12.95;;;2.30;;
24425;SDS011;12611;44.446;26.000;2022-10-15T12:48:33;5.68;;;2.70;;
24425;SDS011;12611;44.446;26.000;2022-10-15T12:54:00;6.00;;;2.13;;
24425;SDS011;12611;44.446;26.000;2022-10-15T12:56:35;7.18;;;2.70;;
24425;SDS011;12611;44.446;26.000;2022-10-15T13:01:57;6.00;;;2.50;;
24425;SDS011;12611;44.446;26.000;2022-10-15T13:04:36;7.53;;;2.67;;
24425;SDS011;12611;44.446;26.000;2022-10-15T13:07:10;4.63;;;2.38;;
24425;SDS011;12611;44.446;26.000;2022-10-15T13:09:40;7.38;;;2.85;;
24425;SDS011;12611;44.446;26.000;2022-10-15T13:12:15;5.70;;;2.78;;
24425;SDS011;12611;44.446;26.000;2022-10-15T13:14:51;7.60;;;2.63;;
24425;SDS011;12611;44.446;26.000;2022-10-15T13:17:23;4.90;;;2.63;;
24425;SDS011;12611;44.446;26.000;2022-10-15T13:19:53;6.22;;;2.90;;
24425;SDS011;12611;44.446;26.000;2022-10-15T13:22:25;6.72;;;3.25;;
24425;SDS011;12611;44.446;26.000;2022-10-15T13:25:02;10.23;;;2.70;;
24425;SDS011;12611;44.446;26.000;2022-10-15T13:27:45;6.72;;;3.03;;
24425;SDS011;12611;44.446;26.000;2022-10-15T13:30:13;4.35;;;2.17;;
24425;SDS011;12611;44.446;26.000;2022-10-15T13:32:44;9.43;;;2.50;;
24425;SDS011;12611;44.446;26.000;2022-10-15T13:35:17;6.68;;;2.85;;
24425;SDS011;12611;44.446;26.000;2022-10-15T13:37:48;4.68;;;2.00;;
24425;SDS011;12611;44.446;26.000;2022-10-15T13:40:17;6.45;;;2.63;;
24425;SDS011;12611;44.446;26.000;2022-10-15T13:42:57;6.40;;;2.60;;
24425;SDS011;12611;44.446;26.000;2022-10-15T13:45:26;4.95;;;2.15;;
24425;SDS011;12611;44.446;26.000;2022-10-15T13:47:56;6.45;;;2.45;;
24425;SDS011;12611;44.446;26.000;2022-10-15T13:50:26;6.70;;;1.98;;
24425;SDS011;12611;44.446;26.000;2022-10-15T13:52:57;4.57;;;2.78;;
24425;SDS011;12611;44.446;26.000;2022-10-15T13:55:28;10.55;;;3.10;;
24425;SDS011;12611;44.446;26.000;2022-10-15T13:58:02;5.72;;;2.83;;
24425;SDS011;12611;44.446;26.000;2022-10-15T14:00:33;5.90;;;2.40;;
24425;SDS011;12611;44.446;26.000;2022-10-15T14:03:06;7.43;;;2.72;;
24425;SDS011;12611;44.446;26.000;2022-10-15T14:05:41;5.72;;;2.53;;
24425;SDS011;12611;44.446;26.000;2022-10-15T14:08:17;5.40;;;2.35;;
24425;SDS011;12611;44.446;26.000;2022-10-15T14:10:53;5.13;;;2.60;;
24425;SDS011;12611;44.446;26.000;2022-10-15T14:13:27;6.97;;;2.55;;
24425;SDS011;12611;44.446;26.000;2022-10-15T14:15:57;5.53;;;2.70;;
24425;SDS011;12611;44.446;26.000;2022-10-15T14:18:33;9.60;;;2.60;;
24425;SDS011;12611;44.446;26.000;2022-10-15T14:21:10;5.15;;;2.42;;
24425;SDS011;12611;44.446;26.000;2022-10-15T14:23:39;4.32;;;2.33;;
24425;SDS011;12611;44.446;26.000;2022-10-15T14:26:08;6.77;;;2.30;;
24425;SDS011;12611;44.446;26.000;2022-10-15T14:28:38;6.63;;;2.47;;
24425;SDS011;12611;44.446;26.000;2022-10-15T14:31:07;7.10;;;2.60;;
24425;SDS011;12611;44.446;26.000;2022-10-15T14:33:40;4.50;;;2.10;;
24425;SDS011;12611;44.446;26.000;2022-10-15T14:36:13;4.43;;;2.07;;
24425;SDS011;12611;44.446;26.000;2022-10-15T14:41:56;4.97;;;2.40;;
24425;SDS011;12611;44.446;26.000;2022-10-15T14:44:38;7.53;;;2.20;;
24425;SDS011;12611;44.446;26.000;2022-10-15T14:47:14;6.93;;;2.20;;
24425;SDS011;12611;44.446;26.000;2022-10-15T14:49:46;5.87;;;2.70;;
24425;SDS011;12611;44.446;26.000;2022-10-15T14:52:17;4.93;;;2.67;;
24425;SDS011;12611;44.446;26.000;2022-10-15T14:54:49;5.60;;;2.80;;
24425;SDS011;12611;44.446;26.000;2022-10-15T14:57:28;5.70;;;2.80;;
24425;SDS011;12611;44.446;26.000;2022-10-15T15:00:03;5.47;;;2.30;;
24425;SDS011;12611;44.446;26.000;2022-10-15T15:02:37;8.70;;;3.20;;
24425;SDS011;12611;44.446;26.000;2022-10-15T15:05:06;9.00;;;3.50;;
24425;SDS011;12611;44.446;26.000;2022-10-15T15:07:45;9.27;;;3.60;;
24425;SDS011;12611;44.446;26.000;2022-10-15T15:10:14;8.10;;;3.60;;
24425;SDS011;12611;44.446;26.000;2022-10-15T15:12:44;7.27;;;3.80;;
24425;SDS011;12611;44.446;26.000;2022-10-15T15:15:15;6.00;;;3.40;;